sensor_id;sensor_type;location;lat;lon;timestamp;pressure;altitude;pressure_sealevel;temperature;humidity
29825;BME280;16713;52.916;12.834;2022-07-05T00:01:14;101329.22;;;15.71;67.66
29825;BME280;16713;52.916;12.834;2022-07-05T00:03:41;101345.81;;;15.71;68.85
29825;BME280;16713;52.916;12.834;2022-07-05T00:06:08;101334.03;;;15.78;69.28
29825;BME280;16713;52.916;12.834;2022-07-05T00:08:34;101341.97;;;15.79;69.08
29825;BME280;16713;52.916;12.834;2022-07-05T00:11:01;101346.81;;;15.86;68.71
29825;BME280;16713;52.916;12.834;2022-07-05T00:13:27;101343.56;;;15.80;69.84
29825;BME280;16713;52.916;12.834;2022-07-05T00:15:54;101346.97;;;15.96;69.05
29825;BME280;16713;52.916;12.834;2022-07-05T00:18:20;101350.00;;;15.88;69.99
29825;BME280;16713;52.916;12.834;2022-07-05T00:20:47;101357.41;;;15.80;69.57
29825;BME280;16713;52.916;12.834;2022-07-05T00:23:13;101363.31;;;15.79;69.99
29825;BME280;16713;52.916;12.834;2022-07-05T00:25:40;101358.69;;;15.86;70.54
29825;BME280;16713;52.916;12.834;2022-07-05T00:28:06;101361.44;;;15.86;70.36
29825;BME280;16713;52.916;12.834;2022-07-05T00:30:33;101362.75;;;15.96;69.09
29825;BME280;16713;52.916;12.834;2022-07-05T00:33:00;101368.03;;;15.78;69.87
29825;BME280;16713;52.916;12.834;2022-07-05T00:35:26;101373.66;;;15.85;70.13
29825;BME280;16713;52.916;12.834;2022-07-05T00:37:53;101378.47;;;15.88;70.02
29825;BME280;16713;52.916;12.834;2022-07-05T00:40:19;101383.88;;;15.81;69.63
29825;BME280;16713;52.916;12.834;2022-07-05T00:42:46;101387.16;;;15.87;70.63
29825;BME280;16713;52.916;12.834;2022-07-05T00:45:13;101394.09;;;15.77;70.67
29825;BME280;16713;52.916;12.834;2022-07-05T00:47:39;101392.56;;;15.80;70.23
29825;BME280;16713;52.916;12.834;2022-07-05T00:50:06;101403.31;;;15.85;70.45
29825;BME280;16713;52.916;12.834;2022-07-05T00:52:33;101394.81;;;15.71;70.93
29825;BME280;16713;52.916;12.834;2022-07-05T00:55:00;101392.81;;;15.71;70.75
29825;BME280;16713;52.916;12.834;2022-07-05T00:57:26;101394.53;;;15.79;71.22
29825;BME280;16713;52.916;12.834;2022-07-05T00:59:53;101395.66;;;15.75;70.90
29825;BME280;16713;52.916;12.834;2022-07-05T01:02:20;101396.34;;;15.68;70.96
29825;BME280;16713;52.916;12.834;2022-07-05T01:04:50;101396.88;;;15.51;71.83
29825;BME280;16713;52.916;12.834;2022-07-05T01:07:22;101401.88;;;15.46;73.24
29825;BME280;16713;52.916;12.834;2022-07-05T01:09:49;101402.50;;;15.36;72.87
29825;BME280;16713;52.916;12.834;2022-07-05T01:12:16;101393.84;;;15.37;72.81
29825;BME280;16713;52.916;12.834;2022-07-05T01:14:43;101403.56;;;15.50;72.32
29825;BME280;16713;52.916;12.834;2022-07-05T01:17:11;101398.66;;;15.40;72.63
29825;BME280;16713;52.916;12.834;2022-07-05T01:19:38;101393.44;;;15.35;73.23
29825;BME280;16713;52.916;12.834;2022-07-05T01:22:18;101397.31;;;15.31;73.23
29825;BME280;16713;52.916;12.834;2022-07-05T01:24:47;101396.06;;;15.28;73.01
29825;BME280;16713;52.916;12.834;2022-07-05T01:27:14;101399.69;;;15.10;74.72
29825;BME280;16713;52.916;12.834;2022-07-05T01:29:42;101396.97;;;15.13;74.13
29825;BME280;16713;52.916;12.834;2022-07-05T01:32:09;101393.81;;;15.11;74.06
29825;BME280;16713;52.916;12.834;2022-07-05T01:34:39;101390.91;;;15.04;74.21
29825;BME280;16713;52.916;12.834;2022-07-05T01:37:08;101389.03;;;15.08;75.23
29825;BME280;16713;52.916;12.834;2022-07-05T01:39:36;101391.81;;;15.12;73.98
29825;BME280;16713;52.916;12.834;2022-07-05T01:42:02;101385.88;;;15.10;74.21
29825;BME280;16713;52.916;12.834;2022-07-05T01:44:30;101384.34;;;15.12;74.38
29825;BME280;16713;52.916;12.834;2022-07-05T01:47:04;101379.84;;;15.04;73.90
29825;BME280;16713;52.916;12.834;2022-07-05T01:49:39;101385.31;;;15.01;74.46
29825;BME280;16713;52.916;12.834;2022-07-05T01:52:11;101384.34;;;15.12;73.65
29825;BME280;16713;52.916;12.834;2022-07-05T01:54:39;101383.66;;;15.19;73.66
29825;BME280;16713;52.916;12.834;2022-07-05T01:57:07;101384.03;;;14.95;75.13
29825;BME280;16713;52.916;12.834;2022-07-05T01:59:34;101375.81;;;14.98;73.74
29825;BME280;16713;52.916;12.834;2022-07-05T02:02:03;101379.97;;;14.89;74.67
29825;BME280;16713;52.916;12.834;2022-07-05T02:04:30;101377.28;;;14.92;74.91
29825;BME280;16713;52.916;12.834;2022-07-05T02:06:57;101371.25;;;14.87;74.93
29825;BME280;16713;52.916;12.834;2022-07-05T02:09:24;101368.56;;;14.90;75.25
29825;BME280;16713;52.916;12.834;2022-07-05T02:11:51;101366.66;;;14.94;74.47
29825;BME280;16713;52.916;12.834;2022-07-05T02:14:17;101357.75;;;14.82;74.06
29825;BME280;16713;52.916;12.834;2022-07-05T02:16:44;101362.00;;;14.76;74.62
29825;BME280;16713;52.916;12.834;2022-07-05T02:19:11;101365.66;;;14.83;74.40
29825;BME280;16713;52.916;12.834;2022-07-05T02:21:38;101364.94;;;14.86;74.21
29825;BME280;16713;52.916;12.834;2022-07-05T02:24:06;101366.94;;;14.89;73.75
29825;BME280;16713;52.916;12.834;2022-07-05T02:26:32;101358.25;;;14.87;74.38
29825;BME280;16713;52.916;12.834;2022-07-05T02:28:59;101369.72;;;14.89;72.90
29825;BME280;16713;52.916;12.834;2022-07-05T02:31:26;101369.63;;;15.05;73.86
29825;BME280;16713;52.916;12.834;2022-07-05T02:33:53;101365.13;;;14.97;73.52
29825;BME280;16713;52.916;12.834;2022-07-05T02:36:19;101368.56;;;14.90;73.62
29825;BME280;16713;52.916;12.834;2022-07-05T02:38:46;101367.81;;;14.93;73.64
29825;BME280;16713;52.916;12.834;2022-07-05T02:41:13;101369.72;;;14.89;74.52
29825;BME280;16713;52.916;12.834;2022-07-05T02:43:40;101376.03;;;14.90;73.94
29825;BME280;16713;52.916;12.834;2022-07-05T02:46:08;101381.63;;;14.93;73.65
29825;BME280;16713;52.916;12.834;2022-07-05T02:48:36;101384.53;;;15.00;72.93
29825;BME280;16713;52.916;12.834;2022-07-05T02:51:03;101378.88;;;14.93;73.32
29825;BME280;16713;52.916;12.834;2022-07-05T02:53:30;101378.75;;;14.86;73.55
29825;BME280;16713;52.916;12.834;2022-07-05T02:55:57;101381.63;;;14.93;73.65
29825;BME280;16713;52.916;12.834;2022-07-05T02:58:23;101379.53;;;14.87;73.94
29825;BME280;16713;52.916;12.834;2022-07-05T03:00:50;101371.06;;;14.76;73.11
29825;BME280;16713;52.916;12.834;2022-07-05T03:03:17;101375.13;;;14.82;73.73
29825;BME280;16713;52.916;12.834;2022-07-05T03:05:43;101374.25;;;14.78;73.43
29825;BME280;16713;52.916;12.834;2022-07-05T03:08:10;101372.22;;;14.75;73.70
29825;BME280;16713;52.916;12.834;2022-07-05T03:10:37;101373.31;;;14.70;73.97
29825;BME280;16713;52.916;12.834;2022-07-05T03:13:03;101379.03;;;14.81;74.03
29825;BME280;16713;52.916;12.834;2022-07-05T03:15:30;101375.53;;;14.61;74.15
29825;BME280;16713;52.916;12.834;2022-07-05T03:17:56;101371.16;;;14.60;73.89
29825;BME280;16713;52.916;12.834;2022-07-05T03:20:23;101372.22;;;14.56;74.59
29825;BME280;16713;52.916;12.834;2022-07-05T03:22:50;101377.75;;;14.56;74.13
29825;BME280;16713;52.916;12.834;2022-07-05T03:25:16;101384.84;;;14.57;74.86
29825;BME280;16713;52.916;12.834;2022-07-05T03:27:43;101402.78;;;14.63;73.05
29825;BME280;16713;52.916;12.834;2022-07-05T03:30:10;101394.25;;;14.52;74.47
29825;BME280;16713;52.916;12.834;2022-07-05T03:32:36;101391.41;;;14.30;74.31
29825;BME280;16713;52.916;12.834;2022-07-05T03:35:03;101392.44;;;14.22;74.70
29825;BME280;16713;52.916;12.834;2022-07-05T03:37:30;101384.31;;;14.29;75.85
29825;BME280;16713;52.916;12.834;2022-07-05T03:39:57;101386.69;;;14.30;74.65
29825;BME280;16713;52.916;12.834;2022-07-05T03:42:23;101385.31;;;14.21;74.37
29825;BME280;16713;52.916;12.834;2022-07-05T03:44:50;101387.59;;;14.34;74.55
29825;BME280;16713;52.916;12.834;2022-07-05T03:47:16;101387.59;;;14.34;74.48
29825;BME280;16713;52.916;12.834;2022-07-05T03:49:43;101398.25;;;14.55;74.26
29825;BME280;16713;52.916;12.834;2022-07-05T03:52:10;101392.66;;;14.32;74.39
29825;BME280;16713;52.916;12.834;2022-07-05T03:54:36;101400.06;;;14.47;74.14
29825;BME280;16713;52.916;12.834;2022-07-05T03:57:03;101406.75;;;14.46;73.49
29825;BME280;16713;52.916;12.834;2022-07-05T03:59:30;101409.16;;;14.67;72.37
29825;BME280;16713;52.916;12.834;2022-07-05T04:01:56;101413.00;;;14.62;74.31
29825;BME280;16713;52.916;12.834;2022-07-05T04:04:23;101415.94;;;14.69;72.84
29825;BME280;16713;52.916;12.834;2022-07-05T04:06:49;101414.22;;;14.84;71.81
29825;BME280;16713;52.916;12.834;2022-07-05T04:09:16;101413.25;;;14.96;73.07
29825;BME280;16713;52.916;12.834;2022-07-05T04:11:42;101411.44;;;15.03;72.05
29825;BME280;16713;52.916;12.834;2022-07-05T04:14:09;101422.97;;;15.09;71.27
29825;BME280;16713;52.916;12.834;2022-07-05T04:16:36;101423.03;;;15.12;72.72
29825;BME280;16713;52.916;12.834;2022-07-05T04:19:03;101420.63;;;15.11;71.27
29825;BME280;16713;52.916;12.834;2022-07-05T04:21:30;101415.91;;;15.11;71.45
29825;BME280;16713;52.916;12.834;2022-07-05T04:23:57;101409.03;;;15.02;70.93
29825;BME280;16713;52.916;12.834;2022-07-05T04:26:23;101425.78;;;15.12;71.03
29825;BME280;16713;52.916;12.834;2022-07-05T04:28:50;101417.56;;;15.16;70.52
29825;BME280;16713;52.916;12.834;2022-07-05T04:31:22;101421.25;;;15.23;70.98
29825;BME280;16713;52.916;12.834;2022-07-05T04:33:49;101421.97;;;15.20;70.23
29825;BME280;16713;52.916;12.834;2022-07-05T04:36:17;101419.09;;;15.13;70.21
29825;BME280;16713;52.916;12.834;2022-07-05T04:38:44;101421.53;;;15.18;71.02
29825;BME280;16713;52.916;12.834;2022-07-05T04:41:10;101430.13;;;15.13;71.20
29825;BME280;16713;52.916;12.834;2022-07-05T04:43:37;101432.41;;;15.08;70.89
29825;BME280;16713;52.916;12.834;2022-07-05T04:46:03;101438.13;;;15.18;70.66
29825;BME280;16713;52.916;12.834;2022-07-05T04:48:30;101441.81;;;15.03;71.36
29825;BME280;16713;52.916;12.834;2022-07-05T04:50:57;101444.28;;;15.08;70.25
29825;BME280;16713;52.916;12.834;2022-07-05T04:53:24;101453.13;;;15.17;71.48
29825;BME280;16713;52.916;12.834;2022-07-05T04:55:51;101458.72;;;15.21;70.51
29825;BME280;16713;52.916;12.834;2022-07-05T04:58:17;101463.13;;;15.25;70.85
29825;BME280;16713;52.916;12.834;2022-07-05T05:00:44;101465.09;;;15.25;70.42
29825;BME280;16713;52.916;12.834;2022-07-05T05:03:10;101465.72;;;15.37;69.87
29825;BME280;16713;52.916;12.834;2022-07-05T05:05:37;101467.97;;;15.51;69.35
29825;BME280;16713;52.916;12.834;2022-07-05T05:08:04;101476.00;;;15.59;68.18
29825;BME280;16713;52.916;12.834;2022-07-05T05:10:30;101486.09;;;15.48;68.06
29825;BME280;16713;52.916;12.834;2022-07-05T05:12:57;101493.44;;;15.63;67.01
29825;BME280;16713;52.916;12.834;2022-07-05T05:15:24;101492.78;;;15.70;67.55
29825;BME280;16713;52.916;12.834;2022-07-05T05:17:50;101491.25;;;15.72;68.06
29825;BME280;16713;52.916;12.834;2022-07-05T05:20:18;101489.63;;;15.71;66.87
29825;BME280;16713;52.916;12.834;2022-07-05T05:22:45;101497.38;;;15.85;67.21
29825;BME280;16713;52.916;12.834;2022-07-05T05:25:13;101496.94;;;15.83;68.34
29825;BME280;16713;52.916;12.834;2022-07-05T05:27:47;101494.59;;;15.85;67.11
29825;BME280;16713;52.916;12.834;2022-07-05T05:30:16;101500.81;;;15.78;68.05
29825;BME280;16713;52.916;12.834;2022-07-05T05:32:44;101498.47;;;16.03;67.32
29825;BME280;16713;52.916;12.834;2022-07-05T05:35:13;101497.28;;;16.04;66.52
29825;BME280;16713;52.916;12.834;2022-07-05T05:37:50;101502.19;;;16.18;66.16
29825;BME280;16713;52.916;12.834;2022-07-05T05:40:18;101508.56;;;16.18;66.57
29825;BME280;16713;52.916;12.834;2022-07-05T05:42:45;101509.34;;;16.19;66.18
29825;BME280;16713;52.916;12.834;2022-07-05T05:45:12;101516.53;;;16.23;66.70
29825;BME280;16713;52.916;12.834;2022-07-05T05:47:53;101521.75;;;16.28;66.79
29825;BME280;16713;52.916;12.834;2022-07-05T05:50:22;101517.28;;;16.20;66.98
29825;BME280;16713;52.916;12.834;2022-07-05T05:52:49;101524.78;;;16.20;66.72
29825;BME280;16713;52.916;12.834;2022-07-05T05:55:16;101522.94;;;16.27;65.89
29825;BME280;16713;52.916;12.834;2022-07-05T05:57:43;101516.75;;;16.37;64.92
29825;BME280;16713;52.916;12.834;2022-07-05T06:00:11;101528.78;;;16.48;64.36
29825;BME280;16713;52.916;12.834;2022-07-05T06:02:38;101527.81;;;16.63;65.20
29825;BME280;16713;52.916;12.834;2022-07-05T06:05:05;101536.50;;;16.62;64.18
29825;BME280;16713;52.916;12.834;2022-07-05T06:08:00;101544.22;;;16.75;63.78
29825;BME280;16713;52.916;12.834;2022-07-05T06:10:31;101546.78;;;16.91;63.76
29825;BME280;16713;52.916;12.834;2022-07-05T06:13:00;101547.53;;;16.88;63.32
29825;BME280;16713;52.916;12.834;2022-07-05T06:15:29;101543.56;;;16.89;63.46
29825;BME280;16713;52.916;12.834;2022-07-05T06:17:55;101550.97;;;17.11;62.69
29825;BME280;16713;52.916;12.834;2022-07-05T06:20:24;101559.84;;;17.20;62.40
29825;BME280;16713;52.916;12.834;2022-07-05T06:22:51;101559.91;;;17.27;61.51
29825;BME280;16713;52.916;12.834;2022-07-05T06:25:18;101562.72;;;17.30;61.97
29825;BME280;16713;52.916;12.834;2022-07-05T06:27:52;101552.84;;;17.33;61.82
29825;BME280;16713;52.916;12.834;2022-07-05T06:30:21;101557.69;;;17.39;61.94
29825;BME280;16713;52.916;12.834;2022-07-05T06:32:48;101559.41;;;17.55;61.64
29825;BME280;16713;52.916;12.834;2022-07-05T06:35:15;101564.69;;;17.67;61.71
29825;BME280;16713;52.916;12.834;2022-07-05T06:40:10;101573.94;;;17.81;60.49
29825;BME280;16713;52.916;12.834;2022-07-05T06:42:43;101574.00;;;17.88;59.96
29825;BME280;16713;52.916;12.834;2022-07-05T06:45:10;101564.13;;;17.94;60.34
29825;BME280;16713;52.916;12.834;2022-07-05T06:47:37;101579.34;;;18.07;60.01
29825;BME280;16713;52.916;12.834;2022-07-05T06:50:05;101575.91;;;18.24;59.42
29825;BME280;16713;52.916;12.834;2022-07-05T06:52:32;101575.56;;;18.29;59.89
29825;BME280;16713;52.916;12.834;2022-07-05T06:54:59;101590.31;;;18.40;59.69
29825;BME280;16713;52.916;12.834;2022-07-05T06:57:26;101584.63;;;18.26;58.50
29825;BME280;16713;52.916;12.834;2022-07-05T06:59:57;101589.22;;;18.52;58.98
29825;BME280;16713;52.916;12.834;2022-07-05T07:02:26;101595.63;;;18.63;58.32
29825;BME280;16713;52.916;12.834;2022-07-05T07:04:52;101598.09;;;18.75;58.53
29825;BME280;16713;52.916;12.834;2022-07-05T07:07:37;101594.16;;;18.79;57.52
29825;BME280;16713;52.916;12.834;2022-07-05T07:10:22;101598.56;;;18.88;56.89
29825;BME280;16713;52.916;12.834;2022-07-05T07:12:56;101593.75;;;18.81;57.26
29825;BME280;16713;52.916;12.834;2022-07-05T07:15:23;101601.38;;;18.95;56.18
29825;BME280;16713;52.916;12.834;2022-07-05T07:17:49;101605.78;;;19.03;55.90
29825;BME280;16713;52.916;12.834;2022-07-05T07:20:16;101590.97;;;18.77;56.65
29825;BME280;16713;52.916;12.834;2022-07-05T07:22:43;101598.69;;;19.12;56.12
29825;BME280;16713;52.916;12.834;2022-07-05T07:25:10;101607.84;;;19.16;56.33
29825;BME280;16713;52.916;12.834;2022-07-05T07:27:45;101612.63;;;19.19;56.70
29825;BME280;16713;52.916;12.834;2022-07-05T07:30:13;101616.19;;;19.20;56.41
29825;BME280;16713;52.916;12.834;2022-07-05T07:32:40;101615.81;;;19.28;56.45
29825;BME280;16713;52.916;12.834;2022-07-05T07:35:08;101610.69;;;19.34;57.19
29825;BME280;16713;52.916;12.834;2022-07-05T07:37:35;101610.28;;;19.32;56.41
29825;BME280;16713;52.916;12.834;2022-07-05T07:40:03;101616.75;;;19.50;55.77
29825;BME280;16713;52.916;12.834;2022-07-05T07:42:30;101610.00;;;19.58;55.75
29825;BME280;16713;52.916;12.834;2022-07-05T07:44:57;101609.59;;;19.63;55.35
29825;BME280;16713;52.916;12.834;2022-07-05T07:47:24;101606.03;;;19.66;55.88
29825;BME280;16713;52.916;12.834;2022-07-05T07:49:50;101613.97;;;19.71;54.95
29825;BME280;16713;52.916;12.834;2022-07-05T07:52:17;101612.00;;;19.75;55.31
29825;BME280;16713;52.916;12.834;2022-07-05T07:54:44;101619.16;;;19.69;54.90
29825;BME280;16713;52.916;12.834;2022-07-05T07:57:11;101619.13;;;19.62;54.34
29825;BME280;16713;52.916;12.834;2022-07-05T07:59:37;101620.78;;;19.87;54.33
29825;BME280;16713;52.916;12.834;2022-07-05T08:02:04;101622.38;;;19.99;54.97
29825;BME280;16713;52.916;12.834;2022-07-05T08:04:30;101621.59;;;20.09;54.48
29825;BME280;16713;52.916;12.834;2022-07-05T08:06:57;101614.81;;;19.96;55.49
29825;BME280;16713;52.916;12.834;2022-07-05T08:09:24;101622.81;;;20.04;54.14
29825;BME280;16713;52.916;12.834;2022-07-05T08:11:50;101616.03;;;20.09;54.01
29825;BME280;16713;52.916;12.834;2022-07-05T08:14:17;101624.41;;;20.27;54.16
29825;BME280;16713;52.916;12.834;2022-07-05T08:16:46;101616.06;;;20.19;52.63
29825;BME280;16713;52.916;12.834;2022-07-05T08:19:19;101607.66;;;20.05;52.75
29825;BME280;16713;52.916;12.834;2022-07-05T08:22:05;101614.06;;;20.20;53.44
29825;BME280;16713;52.916;12.834;2022-07-05T08:24:37;101605.31;;;20.25;52.11
29825;BME280;16713;52.916;12.834;2022-07-05T08:27:05;101616.06;;;20.27;51.98
29825;BME280;16713;52.916;12.834;2022-07-05T08:29:32;101618.03;;;20.23;52.39
29825;BME280;16713;52.916;12.834;2022-07-05T08:31:59;101617.25;;;20.29;52.52
29825;BME280;16713;52.916;12.834;2022-07-05T08:34:25;101618.44;;;20.42;52.67
29825;BME280;16713;52.916;12.834;2022-07-05T08:36:52;101612.84;;;20.53;52.87
29825;BME280;16713;52.916;12.834;2022-07-05T08:39:19;101618.81;;;20.58;52.75
29825;BME280;16713;52.916;12.834;2022-07-05T08:41:50;101618.41;;;20.63;52.35
29825;BME280;16713;52.916;12.834;2022-07-05T08:44:21;101624.34;;;20.72;51.76
29825;BME280;16713;52.916;12.834;2022-07-05T08:46:49;101619.16;;;20.85;52.41
29825;BME280;16713;52.916;12.834;2022-07-05T08:49:37;101615.59;;;20.88;52.45
29825;BME280;16713;52.916;12.834;2022-07-05T08:52:07;101622.34;;;20.90;52.28
29825;BME280;16713;52.916;12.834;2022-07-05T08:54:36;101613.97;;;20.94;52.10
29825;BME280;16713;52.916;12.834;2022-07-05T08:57:02;101618.75;;;20.97;51.29
29825;BME280;16713;52.916;12.834;2022-07-05T08:59:39;101617.94;;;21.03;52.56
29825;BME280;16713;52.916;12.834;2022-07-05T09:02:09;101613.56;;;20.95;51.73
29825;BME280;16713;52.916;12.834;2022-07-05T09:04:42;101613.94;;;21.04;50.63
29825;BME280;16713;52.916;12.834;2022-07-05T09:07:10;101609.94;;;21.09;52.45
29825;BME280;16713;52.916;12.834;2022-07-05T09:09:39;101622.28;;;21.11;51.28
29825;BME280;16713;52.916;12.834;2022-07-05T09:12:13;101625.84;;;21.15;51.53
29825;BME280;16713;52.916;12.834;2022-07-05T09:14:55;101623.44;;;21.14;50.98
29825;BME280;16713;52.916;12.834;2022-07-05T09:17:22;101629.03;;;21.14;50.96
29825;BME280;16713;52.916;12.834;2022-07-05T09:20:12;101616.75;;;21.01;49.97
29825;BME280;16713;52.916;12.834;2022-07-05T09:22:52;101617.97;;;20.89;49.60
29825;BME280;16713;52.916;12.834;2022-07-05T09:25:24;101608.03;;;20.74;51.32
29825;BME280;16713;52.916;12.834;2022-07-05T09:28:03;101595.28;;;20.63;50.18
29825;BME280;16713;52.916;12.834;2022-07-05T09:30:37;101606.03;;;20.78;49.99
29825;BME280;16713;52.916;12.834;2022-07-05T09:33:04;101602.03;;;20.72;50.74
29825;BME280;16713;52.916;12.834;2022-07-05T09:35:36;101603.25;;;20.78;51.25
29825;BME280;16713;52.916;12.834;2022-07-05T09:38:04;101596.50;;;20.65;50.45
29825;BME280;16713;52.916;12.834;2022-07-05T09:40:32;101591.72;;;20.62;50.98
29825;BME280;16713;52.916;12.834;2022-07-05T09:43:12;101596.50;;;20.62;52.89
29825;BME280;16713;52.916;12.834;2022-07-05T09:45:39;101602.06;;;20.65;50.95
29825;BME280;16713;52.916;12.834;2022-07-05T09:48:07;101612.38;;;20.82;51.24
29825;BME280;16713;52.916;12.834;2022-07-05T09:51:12;101612.78;;;20.84;50.59
29825;BME280;16713;52.916;12.834;2022-07-05T09:54:00;101600.84;;;20.77;50.34
29825;BME280;16713;52.916;12.834;2022-07-05T09:56:47;101595.66;;;20.82;50.52
29825;BME280;16713;52.916;12.834;2022-07-05T09:59:16;101598.47;;;20.89;51.10
29825;BME280;16713;52.916;12.834;2022-07-05T10:01:45;101599.63;;;20.95;52.10
29825;BME280;16713;52.916;12.834;2022-07-05T10:04:12;101596.03;;;20.95;51.69
29825;BME280;16713;52.916;12.834;2022-07-05T10:06:39;101601.19;;;21.07;50.62
29825;BME280;16713;52.916;12.834;2022-07-05T10:09:07;101592.06;;;20.82;49.40
29825;BME280;16713;52.916;12.834;2022-07-05T10:11:39;101601.19;;;21.00;50.23
29825;BME280;16713;52.916;12.834;2022-07-05T10:14:11;101593.56;;;21.11;49.20
29825;BME280;16713;52.916;12.834;2022-07-05T10:16:38;101593.56;;;21.18;50.93
29825;BME280;16713;52.916;12.834;2022-07-05T10:19:07;101595.50;;;21.24;49.63
29825;BME280;16713;52.916;12.834;2022-07-05T10:21:37;101607.81;;;21.41;50.23
29825;BME280;16713;52.916;12.834;2022-07-05T10:24:25;101607.00;;;21.44;49.98
29825;BME280;16713;52.916;12.834;2022-07-05T10:26:53;101611.31;;;21.55;50.27
29825;BME280;16713;52.916;12.834;2022-07-05T10:29:21;101606.13;;;21.58;48.47
29825;BME280;16713;52.916;12.834;2022-07-05T10:31:47;101601.75;;;21.57;48.07
29825;BME280;16713;52.916;12.834;2022-07-05T10:34:15;101603.72;;;21.52;48.69
29825;BME280;16713;52.916;12.834;2022-07-05T10:37:04;101601.34;;;21.47;48.18
29825;BME280;16713;52.916;12.834;2022-07-05T10:39:31;101602.66;;;21.32;48.78
29825;BME280;16713;52.916;12.834;2022-07-05T10:41:58;101598.66;;;21.33;48.11
29825;BME280;16713;52.916;12.834;2022-07-05T10:44:26;101591.44;;;21.39;48.55
29825;BME280;16713;52.916;12.834;2022-07-05T10:47:07;101596.16;;;21.49;48.89
29825;BME280;16713;52.916;12.834;2022-07-05T10:49:36;101597.78;;;21.47;49.34
29825;BME280;16713;52.916;12.834;2022-07-05T10:52:24;101602.56;;;21.46;48.68
29825;BME280;16713;52.916;12.834;2022-07-05T10:55:22;101595.75;;;21.51;47.79
29825;BME280;16713;52.916;12.834;2022-07-05T11:00:46;101588.56;;;21.61;48.21
29825;BME280;16713;52.916;12.834;2022-07-05T11:03:32;101592.19;;;21.50;47.55
29825;BME280;16713;52.916;12.834;2022-07-05T11:06:01;101575.03;;;21.52;48.46
29825;BME280;16713;52.916;12.834;2022-07-05T11:11:27;101585.19;;;21.14;47.36
29825;BME280;16713;52.916;12.834;2022-07-05T11:13:54;101578.03;;;21.10;47.38
29825;BME280;16713;52.916;12.834;2022-07-05T11:16:28;101584.66;;;21.44;47.98
29825;BME280;16713;52.916;12.834;2022-07-05T11:19:12;101581.06;;;21.43;46.71
29825;BME280;16713;52.916;12.834;2022-07-05T11:21:59;101575.47;;;21.47;47.07
29825;BME280;16713;52.916;12.834;2022-07-05T11:24:28;101575.44;;;21.50;46.36
29825;BME280;16713;52.916;12.834;2022-07-05T11:27:00;101575.88;;;21.45;46.55
29825;BME280;16713;52.916;12.834;2022-07-05T11:29:46;101584.75;;;21.23;46.75
29825;BME280;16713;52.916;12.834;2022-07-05T11:32:22;101573.69;;;21.02;47.01
29825;BME280;16713;52.916;12.834;2022-07-05T11:34:51;101583.16;;;21.25;47.86
29825;BME280;16713;52.916;12.834;2022-07-05T11:42:47;101569.28;;;21.11;46.71
29825;BME280;16713;52.916;12.834;2022-07-05T11:45:15;101560.56;;;20.99;46.96
29825;BME280;16713;52.916;12.834;2022-07-05T11:47:41;101560.91;;;21.08;45.98
29825;BME280;16713;52.916;12.834;2022-07-05T11:50:10;101560.88;;;21.15;45.84
29825;BME280;16713;52.916;12.834;2022-07-05T11:52:38;101562.44;;;21.23;45.93
29825;BME280;16713;52.916;12.834;2022-07-05T11:55:07;101549.34;;;21.09;46.66
29825;BME280;16713;52.916;12.834;2022-07-05T11:57:34;101539.38;;;21.12;46.62
29825;BME280;16713;52.916;12.834;2022-07-05T12:00:02;101542.13;;;21.19;46.45
29825;BME280;16713;52.916;12.834;2022-07-05T12:02:29;101536.94;;;21.17;46.13
29825;BME280;16713;52.916;12.834;2022-07-05T12:04:57;101536.84;;;21.31;47.15
29825;BME280;16713;52.916;12.834;2022-07-05T12:07:28;101541.13;;;21.57;46.96
29825;BME280;16713;52.916;12.834;2022-07-05T12:09:55;101539.50;;;21.60;45.53
29825;BME280;16713;52.916;12.834;2022-07-05T12:12:41;101544.25;;;21.63;46.10
29825;BME280;16713;52.916;12.834;2022-07-05T12:15:15;101548.63;;;21.64;45.97
29825;BME280;16713;52.916;12.834;2022-07-05T12:17:44;101541.13;;;21.53;45.94
29825;BME280;16713;52.916;12.834;2022-07-05T12:20:12;101541.88;;;21.65;46.26
29825;BME280;16713;52.916;12.834;2022-07-05T12:22:44;101537.13;;;21.54;45.65
29825;BME280;16713;52.916;12.834;2022-07-05T12:25:19;101531.50;;;21.62;45.26
29825;BME280;16713;52.916;12.834;2022-07-05T12:27:48;101531.50;;;21.62;45.71
29825;BME280;16713;52.916;12.834;2022-07-05T12:30:16;101526.28;;;21.67;45.77
29825;BME280;16713;52.916;12.834;2022-07-05T12:33:05;101536.34;;;21.54;45.41
29825;BME280;16713;52.916;12.834;2022-07-05T12:35:40;101535.50;;;21.61;45.45
29825;BME280;16713;52.916;12.834;2022-07-05T12:38:15;101534.75;;;21.57;45.48
29825;BME280;16713;52.916;12.834;2022-07-05T12:40:46;101529.13;;;21.60;45.47
29825;BME280;16713;52.916;12.834;2022-07-05T12:43:18;101527.59;;;21.45;45.28
29825;BME280;16713;52.916;12.834;2022-07-05T12:46:03;101527.28;;;21.32;45.80
29825;BME280;16713;52.916;12.834;2022-07-05T12:48:34;101523.00;;;21.14;45.68
29825;BME280;16713;52.916;12.834;2022-07-05T12:51:02;101539.63;;;21.35;45.55
29825;BME280;16713;52.916;12.834;2022-07-05T12:53:49;101526.16;;;21.26;45.59
29825;BME280;16713;52.916;12.834;2022-07-05T12:56:34;101524.09;;;21.30;45.52
29825;BME280;16713;52.916;12.834;2022-07-05T12:59:56;101522.09;;;21.34;45.61
29825;BME280;16713;52.916;12.834;2022-07-05T13:02:40;101519.25;;;21.41;46.05
29825;BME280;16713;52.916;12.834;2022-07-05T13:05:10;101525.56;;;21.56;45.24
29825;BME280;16713;52.916;12.834;2022-07-05T13:07:48;101517.28;;;21.38;45.84